Greenfield, IN (46140)

2:45 PM EST on December 25, 2014 (GMT -0500)
Lake Liberty | Change Station
CLOSE
Current Station
Personal Weather Station
Location: Greenfield, IN
Elevation: 886 ft
Nearby Weather Stations

Elev 886 ft 39.79 °N, 85.80 °W | Updated 44 seconds ago

Overcast
Overcast
39.8 °F
Feels Like 34 °F
N
8.0
Wind Variable Wind from SW
Gusts 15.0 mph

Today
High -- | Low -- °F
--% Chance of Precip.
Yesterday
High -- | Low -- °F
Precip. -- in
8:02 AM 5:24 PM
Waxing Crescent, 18% visible
Pressure 30.07 in
Visibility 10.0 miles
Clouds Mostly Cloudy 2300 ft
Windchill 34 °F
Dew Point 32 °F
Humidity 75%
Rainfall 0.00 in
Snow Depth Not available.
UV 1 out of 12
Pollen .10 out of 12
Air Quality Not available.
Flu Activity Not available.
METAR KMQJ 251935Z AUTO 23009KT 10SM BKN023 04/M03 A3007 RMK AO1

More Conditions Fewer Conditions

Pressure 30.07 in
Visibility 10.0 miles
Clouds Mostly Cloudy 2300 ft
Windchill 34 °F
Dew Point 32 °F
Humidity 75%
Rainfall 0.00 in
Snow Depth Not available.
UV 1 out of 12
Pollen .10 out of 12
Air Quality Not available.
Flu Activity Not available.
METAR KMQJ 251935Z AUTO 23009KT 10SM BKN023 04/M03 A3007 RMK AO1

More Conditions Fewer Conditions

10-Day Weather Forecast

Almanac

Astronomy

Dec. 25, 2014 Rise Set
Actual Time
Civil Twilight
Nautical Twilight
Astronomical Twilight
Moon
Length of Visible Light
Length of Day
Tomorrow will be .
, % of the Moon is Illuminated

Today's Extremes

State Highs State Lows

Community

WunderPhotos

Upload Photos

1,780,376 photos uploaded!

WunderBlogs® & News

Nearby

Air Quality

  Air Quality AQ Index Pollutant
Not available.

Snow Depth

Station Depth Elevation

Earthquake Activity

City Distance Mag. Time & Date
Minimum magnitude displayed is 2.5.

Coastal Water Temperatures

Place Temperature

Nearby Weather Stations